createdAt,value
2022-11-03T00:01:43.086Z,14.00
2022-11-03T00:04:15.030Z,13.99
2022-11-03T00:06:46.839Z,14.00
2022-11-03T00:09:19.185Z,13.93
2022-11-03T00:11:50.997Z,13.93
2022-11-03T00:14:21.399Z,13.92
2022-11-03T00:16:53.903Z,13.92
2022-11-03T00:19:24.656Z,13.92
2022-11-03T00:21:54.666Z,13.94
2022-11-03T00:24:24.523Z,13.94
2022-11-03T00:26:54.305Z,13.97
2022-11-03T00:29:25.093Z,13.98
2022-11-03T00:31:57.447Z,13.93
2022-11-03T00:34:27.222Z,13.87
2022-11-03T00:36:57.084Z,13.87
2022-11-03T00:39:26.879Z,13.84
2022-11-03T00:41:56.668Z,13.84
2022-11-03T00:44:27.474Z,13.72
2022-11-03T00:47:00.325Z,13.72
2022-11-03T00:49:30.045Z,13.71
2022-11-03T00:51:59.792Z,13.73
2022-11-03T00:54:29.569Z,13.76
2022-11-03T00:56:59.291Z,13.77
2022-11-03T00:59:29.165Z,13.80
2022-11-03T01:02:01.588Z,13.82
2022-11-03T01:04:43.850Z,13.86
2022-11-03T01:07:13.624Z,13.89
2022-11-03T01:09:44.270Z,13.86
2022-11-03T01:12:16.098Z,13.75
2022-11-03T01:14:47.673Z,13.74
2022-11-03T01:17:22.922Z,13.75
2022-11-03T01:19:53.237Z,13.73
2022-11-03T01:22:23.912Z,13.73
2022-11-03T01:24:54.167Z,13.74
2022-11-03T01:27:25.032Z,13.66
2022-11-03T01:29:54.957Z,13.65
2022-11-03T01:32:27.366Z,13.54
2022-11-03T01:34:57.149Z,13.51
2022-11-03T01:37:27.742Z,13.45
2022-11-03T01:39:57.913Z,13.40
2022-11-03T01:42:27.733Z,13.40
2022-11-03T01:44:57.720Z,13.36
2022-11-03T01:47:33.817Z,13.32
2022-11-03T01:50:07.237Z,13.23
2022-11-03T01:52:42.410Z,13.24
2022-11-03T01:55:16.149Z,13.25
2022-11-03T01:57:50.706Z,13.22
2022-11-03T02:00:20.790Z,13.22
2022-11-03T02:02:54.398Z,13.25
2022-11-03T02:05:26.774Z,13.18
2022-11-03T02:08:02.105Z,13.14
2022-11-03T02:10:32.028Z,13.12
2022-11-03T02:13:02.118Z,13.14
2022-11-03T02:15:33.269Z,13.10
2022-11-03T02:18:06.382Z,13.05
2022-11-03T02:20:36.747Z,12.90
2022-11-03T02:23:21.542Z,12.71
2022-11-03T02:25:55.791Z,12.71
2022-11-03T02:28:28.554Z,12.70
2022-11-03T02:31:05.788Z,12.67
2022-11-03T02:33:50.055Z,12.55
2022-11-03T02:36:37.865Z,12.59
2022-11-03T02:39:13.660Z,12.52
2022-11-03T02:41:47.936Z,12.55
2022-11-03T02:44:21.013Z,12.55
2022-11-03T02:46:57.528Z,12.53
2022-11-03T02:49:27.424Z,12.47
2022-11-03T02:52:03.487Z,12.45
2022-11-03T02:54:39.145Z,12.47
2022-11-03T02:57:17.807Z,12.51
2022-11-03T02:59:52.266Z,12.41
2022-11-03T03:02:26.890Z,12.41
2022-11-03T03:05:00.299Z,12.33
2022-11-03T03:07:35.214Z,12.43
2022-11-03T03:10:09.552Z,12.51
2022-11-03T03:12:45.597Z,12.57
2022-11-03T03:15:15.962Z,12.60
2022-11-03T03:17:52.913Z,12.53
2022-11-03T03:20:27.631Z,12.56
2022-11-03T03:23:01.416Z,12.55
2022-11-03T03:25:35.551Z,12.52
2022-11-03T03:28:13.597Z,12.44
2022-11-03T03:30:45.247Z,12.47
2022-11-03T03:33:16.659Z,12.53
2022-11-03T03:35:50.895Z,12.57
2022-11-03T03:38:28.063Z,12.60
2022-11-03T03:41:00.519Z,12.63
2022-11-03T03:43:35.861Z,12.68
2022-11-03T03:46:09.981Z,12.72
2022-11-03T03:48:40.197Z,12.75
2022-11-03T03:51:10.495Z,12.76
2022-11-03T03:53:40.363Z,12.77
2022-11-03T03:56:10.407Z,12.80
2022-11-03T03:58:42.889Z,12.80
2022-11-03T04:01:14.964Z,12.82
2022-11-03T04:03:44.909Z,12.83
2022-11-03T04:06:14.747Z,12.82
2022-11-03T04:08:44.490Z,12.80
2022-11-03T04:11:26.919Z,12.79
2022-11-03T04:14:11.879Z,12.79
2022-11-03T04:16:54.425Z,12.80
2022-11-03T04:19:36.653Z,12.81
2022-11-03T04:22:24.113Z,12.80
2022-11-03T04:24:55.349Z,12.78
2022-11-03T04:27:33.948Z,12.76
2022-11-03T04:30:16.120Z,12.75
2022-11-03T04:32:46.947Z,12.74
2022-11-03T04:35:20.906Z,12.71
2022-11-03T04:37:54.752Z,12.68
2022-11-03T04:40:24.651Z,12.66
2022-11-03T04:43:09.696Z,12.66
2022-11-03T04:45:42.277Z,12.64
2022-11-03T04:48:16.859Z,12.58
2022-11-03T04:50:49.451Z,12.57
2022-11-03T04:53:21.276Z,12.53
2022-11-03T04:55:54.368Z,12.49
2022-11-03T04:58:26.503Z,12.48
2022-11-03T05:01:02.183Z,12.43
2022-11-03T05:03:34.967Z,12.42
2022-11-03T05:06:14.040Z,12.39
2022-11-03T05:08:45.430Z,12.28
2022-11-03T05:11:21.741Z,12.20
2022-11-03T05:13:53.381Z,12.10
2022-11-03T05:16:25.686Z,12.10
2022-11-03T05:18:55.786Z,12.03
2022-11-03T05:21:29.812Z,11.89
2022-11-03T05:24:05.508Z,11.95
2022-11-03T05:26:37.980Z,11.98
2022-11-03T05:29:17.100Z,11.89
2022-11-03T05:31:51.078Z,11.93
2022-11-03T05:34:34.087Z,11.90
2022-11-03T05:37:18.684Z,11.87
2022-11-03T05:39:52.779Z,11.90
2022-11-03T05:42:31.114Z,11.82
2022-11-03T05:45:03.145Z,11.76
2022-11-03T05:47:40.439Z,11.64
2022-11-03T05:50:19.312Z,11.62
2022-11-03T05:52:50.941Z,11.59
2022-11-03T05:55:28.693Z,11.56
2022-11-03T05:58:01.581Z,11.48
2022-11-03T06:00:34.202Z,11.46
2022-11-03T06:03:07.785Z,11.41
2022-11-03T06:05:37.569Z,11.23
2022-11-03T06:08:18.441Z,11.36
2022-11-03T06:10:52.014Z,11.36
2022-11-03T06:13:27.529Z,11.41
2022-11-03T06:16:01.168Z,11.46
2022-11-03T06:18:38.694Z,11.43
2022-11-03T06:21:11.098Z,11.48
2022-11-03T06:23:41.977Z,11.51
2022-11-03T06:26:18.913Z,11.50
2022-11-03T06:28:49.893Z,11.45
2022-11-03T06:31:23.768Z,11.59
2022-11-03T06:33:56.883Z,11.73
2022-11-03T06:36:30.495Z,11.82
2022-11-03T06:39:11.598Z,11.92
2022-11-03T06:41:41.514Z,11.96
2022-11-03T06:44:24.978Z,11.98
2022-11-03T06:46:57.297Z,11.97
2022-11-03T06:49:36.226Z,11.99
2022-11-03T06:52:20.696Z,12.02
2022-11-03T06:54:51.419Z,12.01
2022-11-03T06:57:21.777Z,12.02
2022-11-03T07:00:06.656Z,12.09
2022-11-03T07:03:02.176Z,12.18
2022-11-03T07:05:35.739Z,12.06
2022-11-03T07:08:13.748Z,11.95
2022-11-03T07:10:43.560Z,11.75
2022-11-03T07:13:18.171Z,11.85
2022-11-03T07:15:48.752Z,11.77
2022-11-03T07:18:24.387Z,12.14
2022-11-03T07:20:58.580Z,12.52
2022-11-03T07:23:31.929Z,12.78
2022-11-03T07:26:03.668Z,13.03
2022-11-03T07:28:39.148Z,13.25
2022-11-03T07:31:16.999Z,13.45
2022-11-03T07:33:46.812Z,13.64
2022-11-03T07:36:22.749Z,13.74
2022-11-03T07:38:56.349Z,13.77
2022-11-03T07:41:34.404Z,13.81
2022-11-03T07:44:05.131Z,13.97
2022-11-03T07:46:35.125Z,14.15
2022-11-03T07:49:08.898Z,14.43
2022-11-03T07:51:43.437Z,14.62
2022-11-03T07:54:19.435Z,14.73
2022-11-03T07:56:52.359Z,14.90
2022-11-03T08:02:33.358Z,15.08
2022-11-03T08:05:03.632Z,15.11
2022-11-03T08:07:36.072Z,14.84
2022-11-03T08:10:07.364Z,14.66
2022-11-03T08:12:37.373Z,14.83
2022-11-03T08:15:07.984Z,14.81
2022-11-03T08:17:37.740Z,14.78
2022-11-03T08:20:08.269Z,15.04
2022-11-03T08:22:46.083Z,15.01
2022-11-03T08:25:19.825Z,15.29
2022-11-03T08:27:49.554Z,15.41
2022-11-03T08:30:19.499Z,15.51
2022-11-03T08:32:49.245Z,15.59
2022-11-03T08:35:19.262Z,15.74
2022-11-03T08:37:51.583Z,15.85
2022-11-03T08:40:21.400Z,16.02
2022-11-03T08:42:51.386Z,16.05
2022-11-03T08:45:21.217Z,16.28
2022-11-03T08:47:50.946Z,16.26
2022-11-03T08:50:20.758Z,16.91
2022-11-03T08:52:53.125Z,17.29
2022-11-03T08:55:22.985Z,17.59
2022-11-03T08:57:52.866Z,17.85
2022-11-03T09:00:22.873Z,17.98
2022-11-03T09:02:52.679Z,17.76
2022-11-03T09:05:22.433Z,18.17
2022-11-03T09:10:44.839Z,18.61
2022-11-03T09:13:14.687Z,18.95
2022-11-03T09:15:44.596Z,19.24
2022-11-03T09:18:14.335Z,19.55
2022-11-03T09:20:44.040Z,20.01
2022-11-03T09:23:16.519Z,19.90
2022-11-03T09:25:46.309Z,20.51
2022-11-03T09:28:16.172Z,20.80
2022-11-03T09:30:45.935Z,21.03
2022-11-03T09:33:15.709Z,21.85
2022-11-03T09:35:45.469Z,21.62
2022-11-03T09:38:17.849Z,21.81
2022-11-03T09:43:37.477Z,22.96
2022-11-03T09:46:07.499Z,23.35
2022-11-03T09:48:37.267Z,23.55
2022-11-03T09:51:07.627Z,23.15
2022-11-03T09:53:40.043Z,23.55
2022-11-03T09:56:12.804Z,23.35
2022-11-03T09:58:43.924Z,23.44
2022-11-03T10:01:14.600Z,22.92
2022-11-03T10:03:44.437Z,23.39
2022-11-03T10:06:15.434Z,24.20
2022-11-03T10:08:50.146Z,24.97
2022-11-03T10:11:20.411Z,25.79
2022-11-03T10:13:53.249Z,26.52
2022-11-03T10:16:26.054Z,26.53
2022-11-03T10:18:56.209Z,26.52
2022-11-03T10:21:30.219Z,26.13
2022-11-03T10:24:02.912Z,26.29
2022-11-03T10:26:38.039Z,26.10
2022-11-03T10:29:09.913Z,25.46
2022-11-03T10:31:41.786Z,25.64
2022-11-03T10:34:34.826Z,25.57
2022-11-03T10:37:25.736Z,25.62
2022-11-03T10:39:59.922Z,25.23
2022-11-03T10:42:35.422Z,25.07
2022-11-03T10:45:14.918Z,24.61
2022-11-03T10:47:44.815Z,23.62
2022-11-03T10:50:24.834Z,23.20
2022-11-03T10:52:55.239Z,22.93
2022-11-03T10:55:28.931Z,22.89
2022-11-03T10:58:00.799Z,23.10
2022-11-03T11:00:30.629Z,23.31
2022-11-03T11:03:03.331Z,23.20
2022-11-03T11:05:33.270Z,23.37
2022-11-03T11:08:03.199Z,23.16
2022-11-03T11:10:36.674Z,23.02
2022-11-03T11:13:31.252Z,22.89
2022-11-03T11:16:02.456Z,21.90
2022-11-03T11:19:03.918Z,21.18
2022-11-03T11:22:14.010Z,20.53
2022-11-03T11:25:00.228Z,19.49
2022-11-03T11:28:09.027Z,18.93
2022-11-03T11:31:33.269Z,18.48
2022-11-03T11:34:45.654Z,17.92
2022-11-03T11:37:38.152Z,17.76
2022-11-03T11:40:15.469Z,17.59
2022-11-03T11:43:30.398Z,17.32
2022-11-03T11:46:30.308Z,17.07
2022-11-03T11:49:18.882Z,17.12
2022-11-03T11:51:51.342Z,17.45
2022-11-03T11:54:23.344Z,17.60
2022-11-03T11:56:53.310Z,17.66
2022-11-03T11:59:26.352Z,17.23
2022-11-03T12:01:59.035Z,16.96
2022-11-03T12:04:33.357Z,16.90
2022-11-03T12:07:05.800Z,16.66
2022-11-03T12:09:35.637Z,16.81
2022-11-03T12:12:08.800Z,16.86
2022-11-03T12:14:40.400Z,17.07
2022-11-03T12:17:36.919Z,16.99
2022-11-03T12:20:36.334Z,17.02
2022-11-03T12:23:09.137Z,17.13
2022-11-03T12:25:40.947Z,17.11
2022-11-03T12:28:11.019Z,16.90
2022-11-03T12:30:40.974Z,16.92
2022-11-03T12:33:11.206Z,16.87
2022-11-03T12:35:41.040Z,16.83
2022-11-03T12:38:13.589Z,16.91
2022-11-03T12:40:43.330Z,16.73
2022-11-03T12:43:13.396Z,16.96
2022-11-03T12:45:43.736Z,16.92
2022-11-03T12:48:13.633Z,16.88
2022-11-03T12:50:43.467Z,16.96
2022-11-03T12:53:15.977Z,17.05
2022-11-03T12:55:45.767Z,17.12
2022-11-03T12:58:15.601Z,17.10
2022-11-03T13:00:49.983Z,17.12
2022-11-03T13:03:24.799Z,16.95
2022-11-03T13:05:54.642Z,17.04
2022-11-03T13:08:30.133Z,17.05
2022-11-03T13:11:00.139Z,17.13
2022-11-03T13:13:30.663Z,17.17
2022-11-03T13:16:00.468Z,17.09
2022-11-03T13:18:30.264Z,17.10
2022-11-03T13:21:00.047Z,16.74
2022-11-03T13:23:32.485Z,16.85
2022-11-03T13:26:02.441Z,16.95
2022-11-03T13:28:32.384Z,16.68
2022-11-03T13:31:02.173Z,16.68
2022-11-03T13:33:31.971Z,16.73
2022-11-03T13:36:02.104Z,16.87
2022-11-03T13:38:34.586Z,16.95
2022-11-03T13:41:08.719Z,17.10
2022-11-03T13:43:39.530Z,17.19
2022-11-03T13:46:09.393Z,17.11
2022-11-03T13:51:29.114Z,17.36
2022-11-03T13:59:41.364Z,17.47
2022-11-03T14:05:06.998Z,17.51
2022-11-03T14:07:38.626Z,17.48
2022-11-03T14:10:12.396Z,17.45
2022-11-03T14:12:42.268Z,17.43
2022-11-03T14:15:14.718Z,17.14
2022-11-03T14:17:44.566Z,17.16
2022-11-03T14:20:15.790Z,17.08
2022-11-03T14:22:45.668Z,16.92
2022-11-03T14:25:20.258Z,16.91
2022-11-03T14:27:50.971Z,16.93
2022-11-03T14:30:21.218Z,16.93
2022-11-03T14:32:53.227Z,16.91
2022-11-03T14:35:26.955Z,16.91
2022-11-03T14:37:56.856Z,16.88
2022-11-03T14:40:41.740Z,16.84
2022-11-03T14:43:11.618Z,16.80
2022-11-03T14:45:42.689Z,16.80
2022-11-03T14:48:12.854Z,16.70
2022-11-03T14:50:42.817Z,16.67
2022-11-03T14:53:12.572Z,16.66
2022-11-03T14:55:46.982Z,16.62
2022-11-03T14:58:16.903Z,16.56
2022-11-03T15:00:46.752Z,16.51
2022-11-03T15:03:16.637Z,16.49
2022-11-03T15:05:49.550Z,16.48
2022-11-03T15:08:21.094Z,16.46
2022-11-03T15:10:53.791Z,16.39
2022-11-03T15:13:23.622Z,16.34
2022-11-03T15:15:53.432Z,16.30
2022-11-03T15:18:23.938Z,16.29
2022-11-03T15:20:54.268Z,16.27
2022-11-03T15:26:19.044Z,16.23
2022-11-03T15:28:48.854Z,16.14
2022-11-03T15:31:18.819Z,16.14
2022-11-03T15:33:48.599Z,16.14
2022-11-03T15:36:18.516Z,16.14
2022-11-03T15:38:48.527Z,16.11
2022-11-03T15:41:20.987Z,16.09
2022-11-03T15:43:52.565Z,16.04
2022-11-03T15:46:22.602Z,16.04
2022-11-03T15:48:54.627Z,16.04
2022-11-03T15:51:24.553Z,16.05
2022-11-03T15:53:58.542Z,16.03
2022-11-03T15:56:31.938Z,15.94
2022-11-03T15:59:01.703Z,15.93
2022-11-03T16:01:31.873Z,15.92
2022-11-03T16:04:05.524Z,15.86
2022-11-03T16:07:01.525Z,15.89
2022-11-03T16:09:25.758Z,15.88
2022-11-03T16:11:59.016Z,15.86
2022-11-03T16:14:30.472Z,15.85
2022-11-03T16:17:00.496Z,15.81
2022-11-03T16:19:30.589Z,15.74
2022-11-03T16:22:00.399Z,15.74
2022-11-03T16:24:35.099Z,15.75
2022-11-03T16:27:08.197Z,15.75
2022-11-03T16:29:38.036Z,15.72
2022-11-03T16:32:08.150Z,15.66
2022-11-03T16:34:38.048Z,15.68
2022-11-03T16:37:08.120Z,15.68
2022-11-03T16:39:39.224Z,15.64
2022-11-03T16:42:12.108Z,15.57
2022-11-03T16:44:41.962Z,15.52
2022-11-03T16:47:11.893Z,15.52
2022-11-03T16:49:41.942Z,15.48
2022-11-03T16:52:11.819Z,15.53
2022-11-03T16:54:41.661Z,15.51
2022-11-03T16:57:14.048Z,15.52
2022-11-03T16:59:43.929Z,15.52
2022-11-03T17:02:16.512Z,15.51
2022-11-03T17:04:46.727Z,15.49
2022-11-03T17:07:16.538Z,15.50
2022-11-03T17:09:46.375Z,15.48
2022-11-03T17:12:18.873Z,15.44
2022-11-03T17:14:51.270Z,15.33
2022-11-03T17:17:23.898Z,15.29
2022-11-03T17:19:54.028Z,15.32
2022-11-03T17:22:24.377Z,15.31
2022-11-03T17:24:54.578Z,15.32
2022-11-03T17:27:30.451Z,15.34
2022-11-03T17:30:03.256Z,15.32
2022-11-03T17:32:38.688Z,15.19
2022-11-03T17:35:17.557Z,15.24
2022-11-03T17:37:47.749Z,15.30
2022-11-03T17:40:19.917Z,15.26
2022-11-03T17:42:52.910Z,15.29
2022-11-03T17:45:24.208Z,15.26
2022-11-03T17:47:54.210Z,15.29
2022-11-03T17:50:26.898Z,15.30
2022-11-03T17:52:57.063Z,15.30
2022-11-03T17:55:31.949Z,15.22
2022-11-03T17:58:06.280Z,15.24
2022-11-03T18:00:37.571Z,15.29
2022-11-03T18:03:12.894Z,15.29
2022-11-03T18:05:42.781Z,15.32
2022-11-03T18:08:14.777Z,15.34
2022-11-03T18:10:47.995Z,15.36
2022-11-03T18:13:21.958Z,15.37
2022-11-03T18:15:55.107Z,15.33
2022-11-03T18:18:31.079Z,15.31
2022-11-03T18:21:01.505Z,15.30
2022-11-03T18:23:33.960Z,15.30
2022-11-03T18:26:04.971Z,15.24
2022-11-03T18:28:37.388Z,15.25
2022-11-03T18:31:13.454Z,15.30
2022-11-03T18:33:43.331Z,15.24
2022-11-03T18:36:15.628Z,15.26
2022-11-03T18:38:48.412Z,15.26
2022-11-03T18:41:33.176Z,15.21
2022-11-03T18:44:09.491Z,15.07
2022-11-03T18:46:39.319Z,15.12
2022-11-03T18:49:09.714Z,15.15
2022-11-03T18:51:40.013Z,15.12
2022-11-03T18:54:15.282Z,15.08
2022-11-03T18:56:45.494Z,15.11
2022-11-03T18:59:25.293Z,15.07
2022-11-03T19:01:55.464Z,15.07
2022-11-03T19:04:25.356Z,15.05
2022-11-03T19:06:55.807Z,15.03
2022-11-03T19:09:28.177Z,15.00
2022-11-03T19:12:00.270Z,15.01
2022-11-03T19:14:37.510Z,15.01
2022-11-03T19:17:26.915Z,15.00
2022-11-03T19:19:57.006Z,15.04
2022-11-03T19:22:27.154Z,14.95
2022-11-03T19:24:56.951Z,14.96
2022-11-03T19:27:30.038Z,15.01
2022-11-03T19:30:05.070Z,14.99
2022-11-03T19:32:38.297Z,15.01
2022-11-03T19:35:11.137Z,14.92
2022-11-03T19:37:40.957Z,15.00
2022-11-03T19:40:15.639Z,14.99
2022-11-03T19:42:42.930Z,14.92
2022-11-03T19:45:18.032Z,14.97
2022-11-03T19:48:22.675Z,15.00
2022-11-03T19:50:41.857Z,15.00
2022-11-03T19:53:19.494Z,14.79
2022-11-03T19:55:50.061Z,14.88
2022-11-03T19:58:21.719Z,14.89
2022-11-03T20:00:55.104Z,14.92
2022-11-03T20:03:26.135Z,14.93
2022-11-03T20:05:58.498Z,14.92
2022-11-03T20:08:30.763Z,14.94
2022-11-03T20:11:01.223Z,14.96
2022-11-03T20:13:41.002Z,14.95
2022-11-03T20:16:19.568Z,14.93
2022-11-03T20:18:49.336Z,14.97
2022-11-03T20:21:22.389Z,14.98
2022-11-03T20:23:53.572Z,15.00
2022-11-03T20:26:25.845Z,15.00
2022-11-03T20:28:57.080Z,14.99
2022-11-03T20:31:29.619Z,14.95
2022-11-03T20:33:59.500Z,14.95
2022-11-03T20:36:29.381Z,14.96
2022-11-03T20:39:00.166Z,14.96
2022-11-03T20:41:32.168Z,14.96
2022-11-03T20:44:02.258Z,14.92
2022-11-03T20:46:36.141Z,14.90
2022-11-03T20:49:05.989Z,14.84
2022-11-03T20:51:37.952Z,14.82
2022-11-03T20:54:15.169Z,14.82
2022-11-03T20:56:45.492Z,14.81
2022-11-03T20:59:16.947Z,14.80
2022-11-03T21:01:50.280Z,14.79
2022-11-03T21:04:23.232Z,14.76
2022-11-03T21:06:53.202Z,14.77
2022-11-03T21:09:23.008Z,14.79
2022-11-03T21:11:55.162Z,14.77
2022-11-03T21:14:27.916Z,14.76
2022-11-03T21:17:12.801Z,14.74
2022-11-03T21:19:55.154Z,14.72
2022-11-03T21:25:19.153Z,14.72
2022-11-03T21:27:49.759Z,14.70
2022-11-03T21:30:20.296Z,14.68
2022-11-03T21:32:52.817Z,14.66
2022-11-03T21:35:24.514Z,14.67
2022-11-03T21:37:54.493Z,14.68
2022-11-03T21:40:24.315Z,14.64
2022-11-03T21:43:06.790Z,14.62
2022-11-03T21:45:36.772Z,14.65
2022-11-03T21:48:22.876Z,14.59
2022-11-03T21:50:52.898Z,14.62
2022-11-03T21:53:22.864Z,14.61
2022-11-03T21:55:53.634Z,14.62
2022-11-03T21:58:23.466Z,14.63
2022-11-03T22:00:53.340Z,14.63
2022-11-03T22:03:25.771Z,14.61
2022-11-03T22:05:55.600Z,14.61
2022-11-03T22:08:25.475Z,14.59
2022-11-03T22:11:15.338Z,14.57
2022-11-03T22:13:45.121Z,14.56
2022-11-03T22:16:33.422Z,14.54
2022-11-03T22:19:19.390Z,14.55
2022-11-03T22:22:01.794Z,14.53
2022-11-03T22:24:44.184Z,14.52
2022-11-03T22:27:14.152Z,14.44
2022-11-03T22:29:56.463Z,14.44
2022-11-03T22:32:26.778Z,14.37
2022-11-03T22:35:11.689Z,14.33
2022-11-03T22:37:41.505Z,14.40
2022-11-03T22:40:25.113Z,14.42
2022-11-03T22:43:07.798Z,14.40
2022-11-03T22:45:50.278Z,14.33
2022-11-03T22:48:20.336Z,14.33
2022-11-03T22:50:58.639Z,14.33
2022-11-03T22:53:41.350Z,14.29
2022-11-03T22:56:11.734Z,14.29
2022-11-03T22:58:41.799Z,14.27
2022-11-03T23:01:13.190Z,14.26
2022-11-03T23:03:44.663Z,14.23
2022-11-03T23:06:18.574Z,14.24
2022-11-03T23:08:50.117Z,14.23
2022-11-03T23:11:21.618Z,14.25
2022-11-03T23:13:55.785Z,14.27
2022-11-03T23:16:27.101Z,14.28
2022-11-03T23:19:10.066Z,14.28
2022-11-03T23:21:42.488Z,14.24
2022-11-03T23:24:24.742Z,14.26
2022-11-03T23:26:54.525Z,14.28
2022-11-03T23:29:24.405Z,14.25
2022-11-03T23:31:54.624Z,14.23
2022-11-03T23:34:24.817Z,14.26
2022-11-03T23:36:57.427Z,14.26
2022-11-03T23:39:27.293Z,14.20
2022-11-03T23:41:57.338Z,14.22
2022-11-03T23:44:47.143Z,14.09
2022-11-03T23:47:35.072Z,14.15
2022-11-03T23:50:05.258Z,14.15
2022-11-03T23:52:37.625Z,14.16
2022-11-03T23:55:08.446Z,14.16
2022-11-03T23:57:50.870Z,14.16
